Fedora — SLKU — position and weather

sailwx.info

Track history (hours):
 
Tides and Currents Weather Stations Pressure Air Temp Water Temp Dewpoint Dewpoint Depression Visibility Wind Speed Wind Dir Waves Ship Positions

Fedora

Last reported at 2015-May-06 21:23 UTC. Time now 2015-May-06 22:34 UTC.
Position N 47°16' W 122°23'.

Length 228 m; draft 8.1 m.

Type: Cargo ship. MMSI: 266259000.

Date/timePositionNaut miles runAvg speedWind from/ knotsBaromVisibWave heightAir tempDewpointWater temp
2015-May-06 21:23N 47°16' W 122°23'0 0.0
2015-May-06 20:20N 47°16' W 122°23'0 0.0
2015-May-06 19:26N 47°16' W 122°23'0 0.0
2015-May-06 18:20N 47°16' W 122°23'0 0.0
2015-May-06 17:26N 47°16' W 122°23'0 0.0
2015-May-06 16:08N 47°16' W 122°23'0 0.0
2015-May-06 14:26N 47°16' W 122°23'0 0.4
2015-May-06 13:32N 47°16' W 122°23'3 2.8
2015-May-06 12:33N 47°17' W 122°27'5 5.1
2015-May-06 11:33N 47°22' W 122°23'1414.1
2015-May-06 10:34N 47°36' W 122°28'1717.2
2015-May-06 09:34N 47°53' W 122°29'1817.5
2015-May-06 08:33N 48°08' W 122°43'1717.4
2015-May-06 07:33N 48°12' W 123°08'1312.5
2015-May-06 06:33N 48°11' W 123°27'10 9.7
2015-May-06 05:33N 48°13' W 123°41'1010.0
2015-May-06 04:33N 48°14' W 123°56'1010.1
2015-May-06 03:33N 48°18' W 124°09'1110.7
2015-May-06 02:33N 48°22' W 124°24'1110.8
2015-May-06 01:33N 48°27' W 124°39'1110.9
2015-May-06 00:33N 48°29' W 124°55'1110.3
2015-May-05 23:31N 48°20' W 125°05'1313.6
2015-May-05 22:32N 48°07' W 125°10'7013.9
2015-May-05 17:30N 46°57' W 125°12'1313.6
2015-May-05 16:33N 46°45' W 125°11'1313.0
2015-May-05 15:33N 46°32' W 125°10'1312.5
2015-May-05 14:33N 46°19' W 125°08'1212.5
2015-May-05 13:33N 46°07' W 125°07'1312.8
2015-May-05 12:33N 45°54' W 125°06'1312.9
2015-May-05 11:33N 45°41' W 125°05'1313.2
2015-May-05 10:33N 45°28' W 125°03'38013.5
2015-May-04 06:21N 39°11' W 124°05'1012.7
2015-May-04 05:33N 39°01' W 124°01'1313.0
2015-May-04 04:32N 38°48' W 123°56'1212.8
2015-May-04 03:33N 38°37' W 123°51'1312.8
2015-May-04 02:33N 38°24' W 123°46'1312.7
2015-May-04 01:33N 38°12' W 123°41'1312.7
2015-May-04 00:33N 37°60' W 123°37'1313.1
2015-May-03 23:33N 37°48' W 123°30'1413.5
2015-May-03 22:33N 37°36' W 123°22'1313.1
2015-May-03 21:34N 37°24' W 123°15'1413.7
2015-May-03 20:33N 37°14' W 123°03'1413.6
2015-May-03 19:33N 37°03' W 122°53'1413.7
2015-May-03 18:33N 36°51' W 122°45'1413.6
2015-May-03 17:33N 36°40' W 122°36'1413.8
2015-May-03 16:33N 36°28' W 122°27'1413.7
2015-May-03 15:34N 36°16' W 122°17'1312.9
2015-May-03 14:34N 36°06' W 122°09'1312.8
2015-May-03 13:34N 35°55' W 122°00'1312.7
2015-May-03 12:34N 35°44' W 121°52'1313.1
2015-May-03 11:33N 35°33' W 121°43'1313.0
2015-May-03 10:33N 35°22' W 121°35'1413.4
2015-May-03 09:30N 35°10' W 121°25'1313.6
2015-May-03 08:33N 34°59' W 121°17'1713.5
2015-May-03 07:18N 34°45' W 121°06'1313.1
2015-May-03 06:16N 34°34' W 120°57'1013.2
2015-May-03 05:33N 34°26' W 120°50'1313.1
2015-May-03 04:33N 34°22' W 120°35'1413.1
2015-May-03 03:27N 34°19' W 120°18'1813.1
2015-May-03 02:04N 34°14' W 119°57'612.8
2015-May-03 01:34N 34°12' W 119°50'1312.7
2015-May-03 00:33N 34°09' W 119°34'1212.4
2015-May-02 23:33N 34°05' W 119°20'7 7.3
2015-May-02 22:33N 34°09' W 119°12'0 0.0
2015-May-02 21:32N 34°09' W 119°12'0 0.0
2015-May-02 20:32N 34°09' W 119°12'0 0.0
2015-May-02 19:32N 34°09' W 119°12'0 0.0
2015-May-02 18:32N 34°09' W 119°12'0 0.0
2015-May-02 17:32N 34°09' W 119°12'0 0.0
2015-May-02 16:32N 34°09' W 119°12'0 0.0
2015-May-02 15:32N 34°09' W 119°12'0 0.0
2015-May-02 14:32N 34°09' W 119°12'0 0.0
2015-May-02 13:32N 34°09' W 119°12'0 0.0
2015-May-02 12:32N 34°09' W 119°12'0 0.0
2015-May-02 11:32N 34°09' W 119°12'0 0.0
2015-May-02 10:32N 34°09' W 119°12'0 0.0
2015-May-02 09:32N 34°09' W 119°12'0 0.0
2015-May-02 08:32N 34°09' W 119°12'0 0.0
2015-May-02 07:32N 34°09' W 119°12'0 0.0
2015-May-02 06:32N 34°09' W 119°12'0 0.0
2015-May-02 05:32N 34°09' W 119°12'0 0.0
2015-May-02 04:29N 34°09' W 119°12'0 0.0
2015-May-02 03:32N 34°09' W 119°12'0 0.0
2015-May-02 02:32N 34°09' W 119°12'0 0.0
2015-May-02 01:05N 34°09' W 119°12'0 0.0
2015-May-01 23:26N 34°09' W 119°12'0 0.0
2015-May-01 21:20N 34°09' W 119°12'0 0.0
2015-May-01 20:23N 34°09' W 119°12'0 0.0
2015-May-01 19:23N 34°09' W 119°12'0 0.0
2015-May-01 17:23N 34°09' W 119°12'0 0.0
2015-May-01 16:32N 34°09' W 119°12'0 0.0
2015-May-01 15:29N 34°09' W 119°12'0 0.0
2015-May-01 14:29N 34°09' W 119°12'0 0.0
2015-May-01 13:32N 34°09' W 119°12'0 0.0
2015-May-01 12:23N 34°09' W 119°12'0 0.0
2015-May-01 11:29N 34°09' W 119°12'0 0.0
2015-May-01 10:32N 34°09' W 119°12'0 0.0
2015-May-01 09:23N 34°09' W 119°12'0 0.0
2015-May-01 08:32N 34°09' W 119°12'0 0.0
2015-May-01 07:32N 34°09' W 119°12'0 0.0
2015-May-01 06:29N 34°09' W 119°12'0 0.0
2015-May-01 05:32N 34°09' W 119°12'0 0.0
2015-May-01 04:32N 34°09' W 119°12'0 0.0
2015-May-01 03:11N 34°09' W 119°12'0 0.0
2015-May-01 01:26N 34°09' W 119°12'0 0.2
2015-Apr-30 23:33N 34°09' W 119°13'6 5.7
2015-Apr-30 22:33N 34°03' W 119°12'1010.3
2015-Apr-30 21:33N 33°53' W 119°15'1313.0
2015-Apr-30 20:32N 33°40' W 119°15'1212.0
2015-Apr-30 19:33N 33°28' W 119°12'1716.5
2015-Apr-30 18:33N 33°12' W 119°09'1616.3
2015-Apr-30 17:32N 32°55' W 119°06'1515.6
2015-Apr-30 16:33N 32°41' W 119°00'1615.8
2015-Apr-30 15:33N 32°28' W 118°50'1615.8
2015-Apr-30 14:33N 32°14' W 118°40'1615.8
2015-Apr-30 13:33N 32°01' W 118°31'1615.8
2015-Apr-30 12:33N 31°47' W 118°21'1616.4
2015-Apr-30 11:33N 31°33' W 118°11'1716.6
2015-Apr-30 10:33N 31°19' W 118°01'1716.8
2015-Apr-30 09:33N 31°05' W 117°51'1717.0
2015-Apr-30 08:33N 30°50' W 117°40'1716.9
2015-Apr-30 07:33N 30°36' W 117°30'1716.7
2015-Apr-30 06:33N 30°21' W 117°20'1716.4
2015-Apr-30 05:33N 30°07' W 117°10'1616.3
2015-Apr-30 04:33N 29°53' W 117°00'5115.0
2015-Apr-30 01:07N 29°10' W 116°29'916.4
2015-Apr-30 00:33N 29°02' W 116°23'1322.2
2015-Apr-30 00:00N 28°54' W 116°12'715.2 330 / 131008.6 1.519.3 20.0
2015-Apr-29 23:31N 28°47' W 116°12'1717.7
2015-Apr-29 22:32N 28°32' W 116°02'1817.8
2015-Apr-29 21:33N 28°17' W 115°51'17418.2
2015-Apr-29 12:00N 25°54' W 114°00'21317.8 260 / 81009.710.8 0.519.0 21.6
2015-Apr-29 00:00N 23°06' W 111°36'21618.0 250 / 111009.927.0 0.521.0 21.1
2015-Apr-28 12:00N 21°12' W 108°18'20817.4 350 / 131010.510.8 1.521.3 25.7
2015-Apr-28 00:00N 19°18' W 105°12'42917.9 330 / 31008.110.8 25.4 26.5
2015-Apr-27 00:00N 15°54' W 098°36'   230 / 151006.310.8 0.529.4 30.7
Track history (hours):
 
Tides and Currents Weather Stations Pressure Air Temp Water Temp Dewpoint Dewpoint Depression Visibility Wind Speed Wind Dir Waves Ship Positions

Fedora

Last reported at 2015-May-06 21:23 UTC. Time now 2015-May-06 22:34 UTC.
Position N 47°16' W 122°23'.

Length 228 m; draft 8.1 m.

Type: Cargo ship. MMSI: 266259000.

Date/timePositionNaut miles runAvg speedWind from/ knotsBaromVisibWave heightAir tempDewpointWater temp
2015-May-06 21:23N 47°16' W 122°23'0 0.0
2015-May-06 20:20N 47°16' W 122°23'0 0.0
2015-May-06 19:26N 47°16' W 122°23'0 0.0
2015-May-06 18:20N 47°16' W 122°23'0 0.0
2015-May-06 17:26N 47°16' W 122°23'0 0.0
2015-May-06 16:08N 47°16' W 122°23'0 0.0
2015-May-06 14:26N 47°16' W 122°23'0 0.4
2015-May-06 13:32N 47°16' W 122°23'3 2.8
2015-May-06 12:33N 47°17' W 122°27'5 5.1
2015-May-06 11:33N 47°22' W 122°23'1414.1
2015-May-06 10:34N 47°36' W 122°28'1717.2
2015-May-06 09:34N 47°53' W 122°29'1817.5
2015-May-06 08:33N 48°08' W 122°43'1717.4
2015-May-06 07:33N 48°12' W 123°08'1312.5
2015-May-06 06:33N 48°11' W 123°27'10 9.7
2015-May-06 05:33N 48°13' W 123°41'1010.0
2015-May-06 04:33N 48°14' W 123°56'1010.1
2015-May-06 03:33N 48°18' W 124°09'1110.7
2015-May-06 02:33N 48°22' W 124°24'1110.8
2015-May-06 01:33N 48°27' W 124°39'1110.9
2015-May-06 00:33N 48°29' W 124°55'1110.3
2015-May-05 23:31N 48°20' W 125°05'1313.6
2015-May-05 22:32N 48°07' W 125°10'7013.9
2015-May-05 17:30N 46°57' W 125°12'1313.6
2015-May-05 16:33N 46°45' W 125°11'1313.0
2015-May-05 15:33N 46°32' W 125°10'1312.5
2015-May-05 14:33N 46°19' W 125°08'1212.5
2015-May-05 13:33N 46°07' W 125°07'1312.8
2015-May-05 12:33N 45°54' W 125°06'1312.9
2015-May-05 11:33N 45°41' W 125°05'1313.2
2015-May-05 10:33N 45°28' W 125°03'38013.5
2015-May-04 06:21N 39°11' W 124°05'1012.7
2015-May-04 05:33N 39°01' W 124°01'1313.0
2015-May-04 04:32N 38°48' W 123°56'1212.8
2015-May-04 03:33N 38°37' W 123°51'1312.8
2015-May-04 02:33N 38°24' W 123°46'1312.7
2015-May-04 01:33N 38°12' W 123°41'1312.7
2015-May-04 00:33N 37°60' W 123°37'1313.1
2015-May-03 23:33N 37°48' W 123°30'1413.5
2015-May-03 22:33N 37°36' W 123°22'1313.1
2015-May-03 21:34N 37°24' W 123°15'1413.7
2015-May-03 20:33N 37°14' W 123°03'1413.6
2015-May-03 19:33N 37°03' W 122°53'1413.7
2015-May-03 18:33N 36°51' W 122°45'1413.6
2015-May-03 17:33N 36°40' W 122°36'1413.8
2015-May-03 16:33N 36°28' W 122°27'1413.7
2015-May-03 15:34N 36°16' W 122°17'1312.9
2015-May-03 14:34N 36°06' W 122°09'1312.8
2015-May-03 13:34N 35°55' W 122°00'1312.7
2015-May-03 12:34N 35°44' W 121°52'1313.1
2015-May-03 11:33N 35°33' W 121°43'1313.0
2015-May-03 10:33N 35°22' W 121°35'1413.4
2015-May-03 09:30N 35°10' W 121°25'1313.6
2015-May-03 08:33N 34°59' W 121°17'1713.5
2015-May-03 07:18N 34°45' W 121°06'1313.1
2015-May-03 06:16N 34°34' W 120°57'1013.2
2015-May-03 05:33N 34°26' W 120°50'1313.1
2015-May-03 04:33N 34°22' W 120°35'1413.1
2015-May-03 03:27N 34°19' W 120°18'1813.1
2015-May-03 02:04N 34°14' W 119°57'612.8
2015-May-03 01:34N 34°12' W 119°50'1312.7
2015-May-03 00:33N 34°09' W 119°34'1212.4
2015-May-02 23:33N 34°05' W 119°20'7 7.3
2015-May-02 22:33N 34°09' W 119°12'0 0.0
2015-May-02 21:32N 34°09' W 119°12'0 0.0
2015-May-02 20:32N 34°09' W 119°12'0 0.0
2015-May-02 19:32N 34°09' W 119°12'0 0.0
2015-May-02 18:32N 34°09' W 119°12'0 0.0
2015-May-02 17:32N 34°09' W 119°12'0 0.0
2015-May-02 16:32N 34°09' W 119°12'0 0.0
2015-May-02 15:32N 34°09' W 119°12'0 0.0
2015-May-02 14:32N 34°09' W 119°12'0 0.0
2015-May-02 13:32N 34°09' W 119°12'0 0.0
2015-May-02 12:32N 34°09' W 119°12'0 0.0
2015-May-02 11:32N 34°09' W 119°12'0 0.0
2015-May-02 10:32N 34°09' W 119°12'0 0.0
2015-May-02 09:32N 34°09' W 119°12'0 0.0
2015-May-02 08:32N 34°09' W 119°12'0 0.0
2015-May-02 07:32N 34°09' W 119°12'0 0.0
2015-May-02 06:32N 34°09' W 119°12'0 0.0
2015-May-02 05:32N 34°09' W 119°12'0 0.0
2015-May-02 04:29N 34°09' W 119°12'0 0.0
2015-May-02 03:32N 34°09' W 119°12'0 0.0
2015-May-02 02:32N 34°09' W 119°12'0 0.0
2015-May-02 01:05N 34°09' W 119°12'0 0.0
2015-May-01 23:26N 34°09' W 119°12'0 0.0
2015-May-01 21:20N 34°09' W 119°12'0 0.0
2015-May-01 20:23N 34°09' W 119°12'0 0.0
2015-May-01 19:23N 34°09' W 119°12'0 0.0
2015-May-01 17:23N 34°09' W 119°12'0 0.0
2015-May-01 16:32N 34°09' W 119°12'0 0.0
2015-May-01 15:29N 34°09' W 119°12'0 0.0
2015-May-01 14:29N 34°09' W 119°12'0 0.0
2015-May-01 13:32N 34°09' W 119°12'0 0.0
2015-May-01 12:23N 34°09' W 119°12'0 0.0
2015-May-01 11:29N 34°09' W 119°12'0 0.0
2015-May-01 10:32N 34°09' W 119°12'0 0.0
2015-May-01 09:23N 34°09' W 119°12'0 0.0
2015-May-01 08:32N 34°09' W 119°12'0 0.0
2015-May-01 07:32N 34°09' W 119°12'0 0.0
2015-May-01 06:29N 34°09' W 119°12'0 0.0
2015-May-01 05:32N 34°09' W 119°12'0 0.0
2015-May-01 04:32N 34°09' W 119°12'0 0.0
2015-May-01 03:11N 34°09' W 119°12'0 0.0
2015-May-01 01:26N 34°09' W 119°12'0 0.2
2015-Apr-30 23:33N 34°09' W 119°13'6 5.7
2015-Apr-30 22:33N 34°03' W 119°12'1010.3
2015-Apr-30 21:33N 33°53' W 119°15'1313.0
2015-Apr-30 20:32N 33°40' W 119°15'1212.0
2015-Apr-30 19:33N 33°28' W 119°12'1716.5
2015-Apr-30 18:33N 33°12' W 119°09'1616.3
2015-Apr-30 17:32N 32°55' W 119°06'1515.6
2015-Apr-30 16:33N 32°41' W 119°00'1615.8
2015-Apr-30 15:33N 32°28' W 118°50'1615.8
2015-Apr-30 14:33N 32°14' W 118°40'1615.8
2015-Apr-30 13:33N 32°01' W 118°31'1615.8
2015-Apr-30 12:33N 31°47' W 118°21'1616.4
2015-Apr-30 11:33N 31°33' W 118°11'1716.6
2015-Apr-30 10:33N 31°19' W 118°01'1716.8
2015-Apr-30 09:33N 31°05' W 117°51'1717.0
2015-Apr-30 08:33N 30°50' W 117°40'1716.9
2015-Apr-30 07:33N 30°36' W 117°30'1716.7
2015-Apr-30 06:33N 30°21' W 117°20'1716.4
2015-Apr-30 05:33N 30°07' W 117°10'1616.3
2015-Apr-30 04:33N 29°53' W 117°00'5115.0
2015-Apr-30 01:07N 29°10' W 116°29'916.4
2015-Apr-30 00:33N 29°02' W 116°23'1322.2
2015-Apr-30 00:00N 28°54' W 116°12'715.2 330 / 131008.6 1.519.3 20.0
2015-Apr-29 23:31N 28°47' W 116°12'1717.7
2015-Apr-29 22:32N 28°32' W 116°02'1817.8
2015-Apr-29 21:33N 28°17' W 115°51'17418.2
2015-Apr-29 12:00N 25°54' W 114°00'21317.8 260 / 81009.710.8 0.519.0 21.6
2015-Apr-29 00:00N 23°06' W 111°36'21618.0 250 / 111009.927.0 0.521.0 21.1
2015-Apr-28 12:00N 21°12' W 108°18'20817.4 350 / 131010.510.8 1.521.3 25.7
2015-Apr-28 00:00N 19°18' W 105°12'42917.9 330 / 31008.110.8 25.4 26.5
2015-Apr-27 00:00N 15°54' W 098°36'   230 / 151006.310.8 0.529.4 30.7

Dump ship's entire track history